Time;durP1;ratioP1;P1;durP2;ratioP2;P2;SDS_P1;SDS_P2;PMS_P1;PMS_P2;Temp;Humidity;BMP_temperature;BMP_pressure;BME280_temperature;BME280_humidity;BME280_pressure;Samples;Min_cycle;Max_cycle;Signal;HPM_P1;HPM_P2
2024/02/09 00:00:10;;;;;;;16.77;16.27;;;10.40;99.90;;;;;;5048129;28;20876;-71
2024/02/09 00:02:39;;;;;;;16.47;15.97;;;10.40;99.90;;;;;;5051219;28;20847;-72
2024/02/09 00:05:06;;;;;;;17.27;16.67;;;10.40;99.90;;;;;;5049507;28;20467;-74
2024/02/09 00:07:34;;;;;;;17.83;17.23;;;10.40;99.90;;;;;;5052739;28;20458;-73
2024/02/09 00:10:01;;;;;;;17.93;17.33;;;10.50;99.90;;;;;;5051614;28;20504;-73
2024/02/09 00:12:28;;;;;;;17.47;16.87;;;10.40;99.90;;;;;;5044732;28;20596;-72
2024/02/09 00:14:55;;;;;;;16.73;16.23;;;10.40;99.90;;;;;;5047738;28;20476;-73
2024/02/09 00:17:24;;;;;;;17.63;17.03;;;10.40;99.90;;;;;;5048593;28;21230;-74
2024/02/09 00:19:51;;;;;;;17.70;17.10;;;10.40;99.90;;;;;;5047751;28;21019;-76
2024/02/09 00:22:19;;;;;;;17.50;16.90;;;10.40;99.90;;;;;;5051476;28;20455;-72
2024/02/09 00:24:46;;;;;;;18.10;17.50;;;10.40;99.90;;;;;;5050183;28;20475;-74
2024/02/09 00:27:12;;;;;;;18.47;17.87;;;10.30;99.90;;;;;;5050274;28;20465;-76
2024/02/09 00:29:39;;;;;;;17.87;17.27;;;10.30;99.90;;;;;;5048448;28;20852;-72
2024/02/09 00:32:07;;;;;;;18.83;18.17;;;10.30;99.90;;;;;;5050810;28;20467;-71
2024/02/09 00:34:39;;;;;;;18.33;17.73;;;10.30;99.90;;;;;;5051714;28;20460;-74
2024/02/09 00:37:06;;;;;;;19.07;18.37;;;10.20;99.90;;;;;;5052865;28;20472;-72
2024/02/09 00:39:34;;;;;;;18.90;18.20;;;10.20;99.90;;;;;;5050619;28;20461;-74
2024/02/09 00:42:02;;;;;;;18.67;17.97;;;10.20;99.90;;;;;;5048222;28;20558;-72
2024/02/09 00:44:29;;;;;;;18.23;17.63;;;10.20;99.90;;;;;;5050016;28;20467;-71
2024/02/09 00:46:56;;;;;;;19.00;18.30;;;10.10;99.90;;;;;;5052575;28;20516;-70
2024/02/09 00:49:22;;;;;;;18.17;17.57;;;10.20;99.90;;;;;;5048294;28;20551;-72
2024/02/09 00:51:52;;;;;;;17.97;17.37;;;10.10;99.90;;;;;;5049445;28;20475;-72
2024/02/09 00:54:21;;;;;;;17.27;16.67;;;10.10;99.90;;;;;;5057743;28;20464;-71
2024/02/09 00:56:48;;;;;;;17.77;17.17;;;10.10;99.90;;;;;;5055584;28;20504;-72
2024/02/09 00:59:17;;;;;;;17.90;17.30;;;10.10;99.90;;;;;;5052156;28;20494;-74
2024/02/09 01:01:44;;;;;;;16.67;16.17;;;10.10;99.90;;;;;;5053492;28;21040;-76
2024/02/09 01:04:11;;;;;;;16.97;16.47;;;10.10;99.90;;;;;;5048960;28;20470;-72
2024/02/09 01:06:39;;;;;;;17.60;17.00;;;10.10;99.90;;;;;;5055728;28;21033;-72
2024/02/09 01:09:07;;;;;;;17.47;16.90;;;10.10;99.90;;;;;;5058633;28;20468;-72
2024/02/09 01:11:34;;;;;;;17.80;17.20;;;10.10;99.90;;;;;;5049153;28;20471;-72
2024/02/09 02:46:51;;;;;;;12.90;12.60;;;10.20;99.90;;;;;;5047444;28;20202;-72
2024/02/09 03:05:47;;;;;;;14.10;13.70;;;10.10;99.90;;;;;;5053620;28;20455;-72
2024/02/09 03:08:13;;;;;;;14.27;13.87;;;10.20;99.90;;;;;;5055730;28;20464;-74
2024/02/09 03:10:41;;;;;;;14.90;14.50;;;10.20;99.90;;;;;;5064485;28;20510;-72
2024/02/09 03:13:08;;;;;;;14.67;14.27;;;10.20;99.90;;;;;;5051768;28;20459;-74
2024/02/09 03:15:34;;;;;;;14.87;14.47;;;10.20;99.90;;;;;;5056630;28;20464;-73
2024/02/09 03:18:04;;;;;;;14.40;14.00;;;10.20;99.90;;;;;;5052334;28;20461;-73
2024/02/09 03:20:34;;;;;;;13.83;13.43;;;10.20;99.90;;;;;;5054159;28;20575;-74
2024/02/09 03:23:02;;;;;;;14.40;14.00;;;10.20;99.90;;;;;;5056736;28;20457;-72
2024/02/09 03:25:29;;;;;;;14.50;14.10;;;10.20;99.90;;;;;;5057185;28;20461;-71
2024/02/09 03:27:57;;;;;;;15.77;15.27;;;10.20;99.90;;;;;;5055530;28;20498;-71
2024/02/09 03:30:26;;;;;;;15.80;15.30;;;10.20;99.90;;;;;;5047602;28;20557;-71
2024/02/09 03:32:54;;;;;;;15.17;14.67;;;10.20;99.90;;;;;;5050604;28;20518;-72
2024/02/09 03:35:23;;;;;;;14.47;14.07;;;10.20;99.90;;;;;;5060289;28;20468;-71
2024/02/09 03:37:50;;;;;;;14.60;14.20;;;10.20;99.90;;;;;;5052115;28;20468;-72
2024/02/09 03:40:17;;;;;;;13.17;12.87;;;10.20;99.90;;;;;;5052164;28;20488;-72
2024/02/09 03:42:44;;;;;;;13.53;13.17;;;10.20;99.90;;;;;;5051953;28;20462;-72
2024/02/09 03:45:11;;;;;;;14.13;13.73;;;10.20;99.90;;;;;;5052730;28;20475;-72
2024/02/09 03:47:38;;;;;;;13.20;12.90;;;10.20;99.90;;;;;;5049646;28;20978;-71
2024/02/09 03:50:06;;;;;;;14.17;13.77;;;10.20;99.90;;;;;;5047496;28;20504;-71
2024/02/09 03:52:34;;;;;;;14.23;13.83;;;10.20;99.90;;;;;;5054082;28;20557;-72
2024/02/09 03:55:01;;;;;;;14.60;14.20;;;10.20;99.90;;;;;;5052735;28;20474;-71
2024/02/09 03:57:31;;;;;;;15.47;15.00;;;10.20;99.90;;;;;;5063367;28;20551;-72
2024/02/09 03:59:58;;;;;;;14.87;14.47;;;10.20;99.90;;;;;;5058824;28;21042;-73
2024/02/09 04:02:26;;;;;;;14.67;14.27;;;10.20;99.90;;;;;;5047753;28;20505;-75
2024/02/09 04:04:54;;;;;;;13.70;13.30;;;10.20;99.90;;;;;;5047487;28;20556;-72
2024/02/09 04:07:21;;;;;;;14.07;13.67;;;10.20;99.90;;;;;;5054356;28;20482;-72
2024/02/09 04:09:50;;;;;;;14.90;14.50;;;10.10;99.90;;;;;;5059549;28;20491;-72
2024/02/09 04:12:18;;;;;;;14.30;13.90;;;10.10;99.90;;;;;;5053275;28;20464;-71
2024/02/09 04:14:44;;;;;;;14.20;13.80;;;10.20;99.90;;;;;;5050704;28;20476;-75
2024/02/09 04:17:11;;;;;;;14.63;14.23;;;10.20;99.90;;;;;;5061378;28;22213;-73
2024/02/09 04:19:39;;;;;;;14.27;13.87;;;10.20;99.90;;;;;;5048153;28;20551;-72
2024/02/09 04:22:08;;;;;;;13.80;13.40;;;10.20;99.90;;;;;;5053550;28;22245;-74
2024/02/09 04:24:36;;;;;;;14.40;14.00;;;10.20;99.90;;;;;;5050325;28;20527;-72
2024/02/09 04:27:05;;;;;;;13.40;13.10;;;10.20;99.90;;;;;;5057056;28;21132;-72
2024/02/09 04:29:33;;;;;;;14.47;14.07;;;10.20;99.90;;;;;;5058548;28;20457;-72
2024/02/09 04:32:01;;;;;;;13.83;13.43;;;10.20;99.90;;;;;;5051285;28;20470;-72
2024/02/09 04:34:28;;;;;;;13.87;13.47;;;10.20;99.90;;;;;;5048228;28;20814;-71
2024/02/09 04:36:56;;;;;;;14.67;14.27;;;10.20;99.90;;;;;;5051088;28;21044;-72
2024/02/09 04:39:23;;;;;;;14.70;14.30;;;10.20;99.90;;;;;;5048686;28;20473;-71
2024/02/09 04:41:51;;;;;;;14.03;13.63;;;10.20;99.90;;;;;;5052071;28;20492;-75
2024/02/09 04:44:21;;;;;;;14.30;13.90;;;10.20;99.90;;;;;;5049487;28;20555;-73
2024/02/09 04:46:49;;;;;;;13.90;13.50;;;10.20;99.90;;;;;;5050192;28;20466;-71
2024/02/09 04:49:16;;;;;;;14.07;13.67;;;10.20;99.90;;;;;;5052991;28;20456;-71
2024/02/09 04:51:44;;;;;;;13.47;13.07;;;10.20;99.90;;;;;;5051989;28;20473;-71
2024/02/09 04:54:11;;;;;;;13.27;12.97;;;10.20;99.90;;;;;;5054188;28;20570;-77
2024/02/09 04:56:39;;;;;;;13.77;13.37;;;10.20;99.90;;;;;;5061264;28;20543;-75
2024/02/09 04:59:08;;;;;;;14.00;13.60;;;10.20;99.90;;;;;;5054479;28;20503;-75
2024/02/09 05:01:38;;;;;;;14.47;14.07;;;10.20;99.90;;;;;;5045785;28;20500;-71
2024/02/09 05:04:07;;;;;;;13.90;13.50;;;10.20;99.90;;;;;;5049332;28;21288;-71
2024/02/09 05:06:34;;;;;;;13.77;13.37;;;10.30;99.90;;;;;;5052775;28;20814;-72
2024/02/09 05:09:03;;;;;;;14.37;13.97;;;10.30;99.90;;;;;;5053812;28;20467;-73
2024/02/09 05:11:33;;;;;;;14.50;14.10;;;10.30;99.90;;;;;;5047006;28;20476;-72
2024/02/09 05:14:00;;;;;;;14.33;13.93;;;10.40;99.90;;;;;;5048603;28;20984;-73
2024/02/09 05:16:29;;;;;;;14.17;13.77;;;10.40;99.90;;;;;;5059227;28;20464;-75
2024/02/09 05:18:57;;;;;;;14.57;14.17;;;10.40;99.90;;;;;;5051738;28;20465;-73
2024/02/09 05:21:24;;;;;;;14.10;13.70;;;10.40;99.90;;;;;;5050418;28;20567;-71
2024/02/09 05:23:52;;;;;;;13.20;12.80;;;10.40;99.90;;;;;;5051256;28;20467;-71
2024/02/09 05:26:20;;;;;;;12.93;12.63;;;10.40;99.90;;;;;;5048581;28;20504;-71
2024/02/09 05:28:48;;;;;;;13.30;12.90;;;10.40;99.90;;;;;;5049503;28;20468;-71
2024/02/09 05:31:15;;;;;;;13.53;13.13;;;10.40;99.90;;;;;;5057489;28;20848;-73
2024/02/09 05:33:42;;;;;;;13.27;12.87;;;10.50;99.90;;;;;;5051383;28;20468;-76
2024/02/09 05:36:20;;;;;;;13.20;12.80;;;10.50;99.90;;;;;;5054358;28;20850;-73
2024/02/09 05:38:48;;;;;;;12.90;12.60;;;10.50;99.90;;;;;;5053665;28;20452;-72
2024/02/09 05:41:16;;;;;;;12.70;12.40;;;10.50;99.90;;;;;;5051277;28;20610;-70
2024/02/09 05:43:45;;;;;;;12.50;12.20;;;10.50;99.90;;;;;;5046771;28;20468;-72
2024/02/09 05:46:12;;;;;;;12.60;12.30;;;10.60;99.90;;;;;;5048584;28;20976;-71
2024/02/09 05:48:39;;;;;;;12.37;12.07;;;10.60;99.90;;;;;;5046570;28;20478;-71
2024/02/09 05:51:11;;;;;;;12.23;11.93;;;10.60;99.90;;;;;;5053533;28;20475;-72
2024/02/09 05:53:40;;;;;;;12.80;12.50;;;10.60;99.90;;;;;;5057112;28;20464;-72
2024/02/09 05:56:14;;;;;;;12.37;12.07;;;10.60;99.90;;;;;;5047031;28;20462;-71
2024/02/09 05:58:42;;;;;;;11.90;11.60;;;10.60;99.90;;;;;;5054761;28;20492;-71
2024/02/09 06:01:09;;;;;;;11.40;11.10;;;10.50;99.90;;;;;;5044219;28;20494;-71
2024/02/09 06:03:38;;;;;;;12.30;12.00;;;10.50;99.90;;;;;;5047658;28;20468;-75
2024/02/09 06:06:05;;;;;;;12.03;11.73;;;10.50;99.90;;;;;;5052212;28;20575;-71
2024/02/09 06:08:33;;;;;;;12.37;12.07;;;10.50;99.90;;;;;;5051472;28;20453;-71
2024/02/09 06:11:03;;;;;;;11.90;11.60;;;10.50;99.90;;;;;;5051416;28;20472;-71
2024/02/09 06:13:30;;;;;;;11.90;11.60;;;10.50;99.90;;;;;;5046735;28;22547;-71
2024/02/09 06:15:57;;;;;;;12.70;12.40;;;10.50;99.90;;;;;;5051933;28;20469;-71
2024/02/09 06:18:25;;;;;;;12.73;12.43;;;10.50;99.90;;;;;;5053138;28;20470;-71
2024/02/09 06:20:53;;;;;;;12.00;11.70;;;10.50;99.90;;;;;;5050441;28;20813;-71
2024/02/09 06:23:20;;;;;;;12.47;12.17;;;10.60;99.90;;;;;;5049549;28;20463;-73
2024/02/09 06:25:49;;;;;;;12.97;12.57;;;10.60;99.90;;;;;;5043714;28;21370;-71
2024/02/09 06:28:19;;;;;;;12.40;12.10;;;10.60;99.90;;;;;;5053880;28;20456;-73
2024/02/09 06:30:47;;;;;;;12.03;11.73;;;10.60;99.90;;;;;;5052423;28;20466;-71
2024/02/09 06:33:15;;;;;;;11.60;11.30;;;10.60;99.90;;;;;;5048525;28;20474;-72
2024/02/09 06:35:41;;;;;;;11.73;11.43;;;10.70;99.90;;;;;;5049509;28;20464;-71
2024/02/09 06:38:08;;;;;;;12.37;12.07;;;10.60;99.90;;;;;;5047234;28;21049;-71
2024/02/09 06:40:35;;;;;;;12.27;11.97;;;10.70;99.90;;;;;;5052918;28;20467;-71
2024/02/09 06:43:02;;;;;;;12.70;12.30;;;10.70;99.90;;;;;;5050989;28;20497;-71
2024/02/09 06:45:31;;;;;;;11.93;11.63;;;10.80;99.90;;;;;;5049722;28;20475;-72
2024/02/09 06:47:58;;;;;;;11.60;11.30;;;10.80;99.90;;;;;;5052737;28;20476;-73
2024/02/09 06:50:25;;;;;;;11.53;11.23;;;10.80;99.90;;;;;;5052016;28;20560;-70
2024/02/09 06:52:52;;;;;;;10.67;10.47;;;10.90;99.90;;;;;;5055212;28;20476;-71
2024/02/09 06:55:19;;;;;;;11.20;10.90;;;10.90;99.90;;;;;;5048986;28;20453;-71
2024/02/09 06:57:46;;;;;;;10.83;10.53;;;10.90;99.90;;;;;;5050107;28;20472;-72
2024/02/09 07:00:14;;;;;;;9.80;9.60;;;10.90;99.90;;;;;;5046119;28;20477;-73
2024/02/09 07:02:45;;;;;;;9.27;9.07;;;10.90;99.90;;;;;;5056080;28;21102;-71
2024/02/09 07:05:14;;;;;;;9.80;9.60;;;11.00;99.90;;;;;;5050051;28;20544;-71
2024/02/09 07:07:43;;;;;;;10.83;10.53;;;11.00;99.90;;;;;;5047412;28;20835;-70
2024/02/09 07:10:11;;;;;;;11.60;11.30;;;10.90;99.90;;;;;;5050318;28;20509;-70
2024/02/09 07:12:39;;;;;;;12.83;12.43;;;10.90;99.90;;;;;;5050313;28;20526;-70
2024/02/09 07:15:07;;;;;;;12.77;12.37;;;10.90;99.90;;;;;;5053374;28;20465;-70
2024/02/09 07:17:34;;;;;;;12.37;12.07;;;10.80;99.90;;;;;;5049536;28;20466;-71
2024/02/09 07:20:04;;;;;;;12.70;12.30;;;10.80;99.90;;;;;;5049559;28;20852;-70
2024/02/09 07:22:31;;;;;;;12.20;11.90;;;10.80;99.90;;;;;;5046338;28;20482;-70
2024/02/09 07:24:59;;;;;;;12.97;12.57;;;10.80;99.90;;;;;;5045621;28;20481;-72
2024/02/09 07:27:26;;;;;;;12.80;12.40;;;10.80;99.90;;;;;;5054773;28;20967;-69
2024/02/09 07:29:52;;;;;;;11.83;11.53;;;10.80;99.90;;;;;;5051259;28;20463;-73
2024/02/09 07:32:20;;;;;;;12.27;11.97;;;10.80;99.90;;;;;;5056491;28;20465;-73
2024/02/09 07:34:48;;;;;;;12.23;11.93;;;10.90;99.90;;;;;;5047245;28;21022;-70
2024/02/09 07:37:16;;;;;;;12.10;11.80;;;10.90;99.90;;;;;;5049270;28;20465;-71
2024/02/09 07:39:43;;;;;;;11.60;11.30;;;10.90;99.90;;;;;;5054925;28;20496;-74
2024/02/09 07:42:10;;;;;;;11.27;10.97;;;10.90;99.90;;;;;;5053712;28;20507;-72
2024/02/09 07:44:39;;;;;;;11.13;10.83;;;10.90;99.90;;;;;;5048827;28;20803;-75
2024/02/09 07:47:06;;;;;;;11.00;10.70;;;10.90;99.90;;;;;;5061145;28;20463;-73
2024/02/09 07:49:34;;;;;;;12.03;11.73;;;10.90;99.90;;;;;;5056847;28;21329;-71
2024/02/09 07:52:02;;;;;;;13.40;13.00;;;10.90;99.90;;;;;;5057351;28;20464;-71
2024/02/09 07:54:31;;;;;;;13.63;13.23;;;10.90;99.90;;;;;;5048483;28;20468;-72
2024/02/09 07:56:58;;;;;;;13.03;12.63;;;11.00;99.90;;;;;;5052706;28;20467;-72
2024/02/09 07:59:25;;;;;;;13.13;12.73;;;10.90;99.90;;;;;;5046801;28;20490;-72
2024/02/09 08:01:53;;;;;;;13.23;12.83;;;11.00;99.90;;;;;;5051709;28;20476;-72
2024/02/09 08:04:20;;;;;;;12.90;12.50;;;11.00;99.90;;;;;;5054799;28;20468;-72
2024/02/09 08:06:48;;;;;;;13.57;13.17;;;11.00;99.90;;;;;;5052054;28;20494;-74
2024/02/09 08:09:15;;;;;;;13.77;13.37;;;11.10;99.90;;;;;;5049522;28;20732;-71
2024/02/09 08:11:45;;;;;;;13.20;12.80;;;11.10;99.90;;;;;;5046346;28;20469;-72
2024/02/09 08:14:11;;;;;;;12.80;12.40;;;11.20;99.90;;;;;;5054084;28;20465;-75
2024/02/09 08:16:38;;;;;;;13.00;12.60;;;11.20;99.90;;;;;;5055530;28;20470;-72
2024/02/09 08:19:09;;;;;;;11.70;11.40;;;11.20;99.90;;;;;;5049592;28;20843;-72
2024/02/09 08:21:39;;;;;;;10.97;10.67;;;11.30;99.90;;;;;;5050752;28;20454;-74
2024/02/09 08:24:07;;;;;;;11.30;11.00;;;11.30;99.90;;;;;;5053380;28;20468;-73
2024/02/09 08:26:34;;;;;;;10.97;10.67;;;11.30;99.90;;;;;;5053738;28;20456;-72
2024/02/09 08:29:03;;;;;;;10.67;10.37;;;11.40;99.90;;;;;;5048446;28;20460;-72
2024/02/09 08:31:30;;;;;;;10.23;10.03;;;11.40;99.90;;;;;;5050722;28;20514;-72
2024/02/09 08:33:57;;;;;;;10.30;10.10;;;11.50;99.90;;;;;;5052099;28;20461;-72
2024/02/09 08:36:24;;;;;;;10.00;9.80;;;11.50;99.90;;;;;;5054929;28;20540;-74
2024/02/09 08:38:51;;;;;;;9.30;9.10;;;11.60;99.90;;;;;;5052444;28;20471;-72
2024/02/09 08:41:19;;;;;;;9.53;9.33;;;11.60;99.90;;;;;;5051500;28;20477;-72
2024/02/09 08:43:46;;;;;;;9.80;9.60;;;11.50;99.90;;;;;;5051706;28;20533;-73
2024/02/09 08:46:14;;;;;;;9.10;8.90;;;11.50;99.90;;;;;;5047683;28;20466;-75
2024/02/09 08:48:41;;;;;;;9.00;8.80;;;11.50;99.90;;;;;;5047637;28;20462;-73
2024/02/09 08:51:08;;;;;;;8.70;8.60;;;11.60;99.90;;;;;;5049393;28;20769;-72
2024/02/09 08:53:37;;;;;;;8.80;8.63;;;11.60;99.90;;;;;;5049225;28;20552;-73
2024/02/09 08:56:05;;;;;;;8.47;8.37;;;11.70;99.90;;;;;;5051901;28;20475;-72
2024/02/09 08:58:32;;;;;;;8.90;8.70;;;11.80;99.90;;;;;;5052083;28;20556;-72
2024/02/09 09:00:59;;;;;;;8.33;8.23;;;11.80;99.90;;;;;;5056836;28;20672;-73
2024/02/09 09:03:28;;;;;;;9.17;8.97;;;11.90;99.90;;;;;;5049086;28;20494;-72
2024/02/09 09:05:55;;;;;;;9.77;9.57;;;11.90;99.90;;;;;;5044549;28;20468;-72
2024/02/09 09:08:21;;;;;;;9.67;9.47;;;12.00;99.90;;;;;;5042928;28;20467;-72
2024/02/09 09:10:48;;;;;;;9.40;9.20;;;12.10;99.90;;;;;;5043568;28;20469;-72
2024/02/09 09:13:15;;;;;;;9.80;9.60;;;12.30;99.90;;;;;;5045503;28;20459;-73
2024/02/09 09:15:42;;;;;;;10.00;9.80;;;12.40;99.90;;;;;;5043552;28;20470;-73
2024/02/09 09:18:09;;;;;;;10.10;9.90;;;12.40;99.90;;;;;;5046681;28;20982;-72
2024/02/09 09:20:37;;;;;;;10.33;10.13;;;12.50;99.90;;;;;;5048186;28;21560;-75
2024/02/09 09:23:05;;;;;;;10.20;10.00;;;12.50;99.90;;;;;;5042452;28;20490;-72
2024/02/09 09:25:32;;;;;;;9.97;9.77;;;12.50;99.90;;;;;;5044916;28;20875;-72
2024/02/09 09:27:59;;;;;;;9.70;9.50;;;12.60;99.90;;;;;;5044643;28;20473;-72
2024/02/09 09:30:26;;;;;;;10.03;9.83;;;12.60;99.90;;;;;;5048844;28;20466;-72
2024/02/09 09:32:53;;;;;;;9.50;9.30;;;12.70;99.90;;;;;;5044783;28;20501;-72
2024/02/09 09:35:20;;;;;;;8.77;8.67;;;12.70;99.90;;;;;;5047290;28;20578;-72
2024/02/09 09:37:48;;;;;;;9.40;9.20;;;12.70;99.90;;;;;;5047741;28;20467;-72
2024/02/09 09:40:16;;;;;;;10.40;10.20;;;12.70;99.90;;;;;;5047714;28;20461;-72
2024/02/09 09:42:43;;;;;;;10.97;10.67;;;12.80;99.90;;;;;;5048296;28;20880;-72
2024/02/09 09:45:11;;;;;;;10.90;10.60;;;12.90;99.90;;;;;;5045114;28;20472;-74
2024/02/09 09:47:40;;;;;;;11.10;10.80;;;13.00;99.90;;;;;;5042802;28;20908;-72
2024/02/09 09:50:12;;;;;;;11.03;10.73;;;13.10;99.90;;;;;;5045562;28;20843;-73
2024/02/09 09:52:48;;;;;;;11.43;11.13;;;13.20;99.90;;;;;;5045576;28;20521;-70
2024/02/09 09:55:19;;;;;;;10.90;10.60;;;13.20;99.90;;;;;;5048578;28;20486;-71
2024/02/09 09:57:47;;;;;;;11.80;11.50;;;13.20;99.90;;;;;;5047501;28;20499;-70
2024/02/09 10:00:15;;;;;;;11.20;10.90;;;13.20;99.90;;;;;;5040786;28;20512;-71
2024/02/09 10:02:42;;;;;;;11.10;10.80;;;13.20;99.90;;;;;;5046760;28;20483;-71
2024/02/09 10:05:09;;;;;;;11.20;10.90;;;13.20;99.90;;;;;;5045840;28;20463;-73
2024/02/09 10:07:40;;;;;;;11.30;11.00;;;13.20;99.90;;;;;;5044930;28;21530;-70
2024/02/09 10:10:11;;;;;;;11.67;11.37;;;13.20;99.90;;;;;;5046073;28;20489;-70
2024/02/09 10:12:39;;;;;;;11.30;11.00;;;13.20;99.90;;;;;;5048096;28;20466;-70
2024/02/09 10:15:08;;;;;;;11.30;11.00;;;13.30;99.90;;;;;;5046105;28;20459;-72
2024/02/09 10:17:39;;;;;;;11.17;10.87;;;13.20;99.90;;;;;;5041133;28;20467;-70
2024/02/09 10:20:08;;;;;;;11.50;11.20;;;13.30;99.90;;;;;;5047750;28;20460;-69
2024/02/09 10:22:36;;;;;;;11.40;11.10;;;13.20;99.90;;;;;;5048866;28;20496;-71
2024/02/09 10:25:03;;;;;;;11.00;10.70;;;13.30;99.90;;;;;;5044783;28;20460;-71
2024/02/09 10:27:31;;;;;;;11.47;11.17;;;13.30;99.90;;;;;;5050285;28;20480;-71
2024/02/09 10:30:00;;;;;;;11.40;11.10;;;13.40;99.90;;;;;;5046482;28;20889;-70
2024/02/09 10:32:26;;;;;;;11.23;10.93;;;13.40;99.90;;;;;;5043704;28;20854;-72
2024/02/09 10:34:54;;;;;;;11.43;11.13;;;13.50;99.90;;;;;;5044312;28;20459;-70
2024/02/09 10:37:21;;;;;;;11.20;10.90;;;13.50;99.90;;;;;;5044572;28;20463;-71
2024/02/09 10:39:49;;;;;;;11.20;10.90;;;13.60;99.90;;;;;;5045388;28;20472;-70
2024/02/09 10:42:22;;;;;;;11.07;10.77;;;13.70;99.90;;;;;;5048363;28;20459;-69
2024/02/09 10:44:52;;;;;;;11.30;11.00;;;13.70;99.90;;;;;;5049137;28;20552;-70
2024/02/09 10:47:25;;;;;;;10.70;10.40;;;13.80;99.90;;;;;;5045363;28;20456;-69
2024/02/09 10:49:55;;;;;;;10.90;10.60;;;13.90;99.90;;;;;;5046912;28;20581;-70
2024/02/09 10:52:25;;;;;;;11.27;10.97;;;14.00;99.90;;;;;;5046857;28;21129;-70
2024/02/09 10:54:56;;;;;;;11.60;11.30;;;14.00;99.90;;;;;;5040420;28;21128;-70
2024/02/09 10:57:25;;;;;;;11.20;10.90;;;13.90;99.90;;;;;;5049212;28;20462;-69
2024/02/09 10:59:52;;;;;;;11.40;11.10;;;13.80;99.90;;;;;;5047750;28;20488;-70
2024/02/09 11:02:22;;;;;;;11.80;11.50;;;13.70;99.90;;;;;;5045124;28;20494;-70
2024/02/09 11:04:49;;;;;;;11.47;11.17;;;13.60;99.90;;;;;;5046603;28;20810;-70
2024/02/09 11:07:16;;;;;;;12.00;11.70;;;13.60;99.90;;;;;;5044408;28;20459;-70
2024/02/09 11:09:44;;;;;;;12.17;11.80;;;13.70;99.90;;;;;;5044016;28;20472;-69
2024/02/09 11:12:12;;;;;;;11.77;11.47;;;13.70;99.90;;;;;;5050903;28;20829;-70
2024/02/09 11:14:44;;;;;;;11.87;11.57;;;13.80;99.90;;;;;;5049281;28;20467;-70
2024/02/09 11:17:13;;;;;;;11.73;11.43;;;13.90;99.90;;;;;;5044193;28;20537;-70
2024/02/09 11:19:42;;;;;;;11.50;11.20;;;14.00;99.90;;;;;;5051700;28;20472;-72
2024/02/09 11:22:10;;;;;;;12.10;11.80;;;14.20;99.90;;;;;;5049784;28;20476;-71
2024/02/09 11:24:38;;;;;;;12.07;11.77;;;14.30;99.90;;;;;;5048053;28;20496;-70
2024/02/09 11:27:06;;;;;;;12.17;11.80;;;14.40;99.90;;;;;;5050162;28;20909;-70
2024/02/09 11:29:33;;;;;;;12.20;11.90;;;14.40;99.90;;;;;;5046632;28;20460;-72
2024/02/09 11:32:02;;;;;;;12.40;12.00;;;14.40;99.90;;;;;;5050672;28;20475;-70
2024/02/09 11:34:32;;;;;;;12.50;12.10;;;14.30;99.90;;;;;;5051810;28;20460;-72
2024/02/09 11:37:01;;;;;;;12.73;12.33;;;14.20;99.90;;;;;;5047816;28;20456;-70
2024/02/09 11:39:28;;;;;;;12.53;12.13;;;14.20;99.90;;;;;;5047364;28;20552;-71
2024/02/09 11:41:56;;;;;;;13.00;12.60;;;14.20;99.90;;;;;;5043939;28;20467;-71
2024/02/09 11:44:23;;;;;;;13.03;12.63;;;14.10;99.90;;;;;;5050325;28;20623;-74
2024/02/09 11:46:52;;;;;;;13.00;12.60;;;14.20;99.90;;;;;;5048174;28;20466;-74
2024/02/09 11:49:20;;;;;;;12.73;12.33;;;14.10;99.90;;;;;;5042426;28;20460;-71
2024/02/09 11:51:47;;;;;;;12.90;12.50;;;14.00;99.90;;;;;;5049234;28;20486;-70
2024/02/09 11:54:17;;;;;;;12.70;12.30;;;14.00;99.90;;;;;;5049727;28;20478;-71
2024/02/09 11:56:45;;;;;;;13.03;12.63;;;14.00;99.90;;;;;;5048342;28;20500;-69
2024/02/09 11:59:13;;;;;;;13.07;12.67;;;13.90;99.90;;;;;;5050752;28;20488;-72
2024/02/09 12:01:42;;;;;;;12.47;12.07;;;13.90;99.90;;;;;;5047529;28;20479;-69
2024/02/09 12:04:09;;;;;;;12.57;12.17;;;14.00;99.90;;;;;;5050874;28;20506;-70
2024/02/09 12:06:37;;;;;;;12.80;12.40;;;14.20;99.90;;;;;;5046389;28;20464;-72
2024/02/09 12:09:05;;;;;;;12.47;12.07;;;14.40;99.90;;;;;;5050302;28;20467;-71
2024/02/09 12:11:33;;;;;;;12.70;12.30;;;14.30;99.90;;;;;;5050144;28;20537;-71
2024/02/09 12:14:00;;;;;;;12.60;12.20;;;14.30;99.90;;;;;;5048257;28;20471;-70
2024/02/09 12:16:28;;;;;;;12.73;12.33;;;14.40;99.90;;;;;;5048599;28;20804;-70
2024/02/09 12:18:57;;;;;;;12.60;12.20;;;14.40;99.90;;;;;;5047325;28;20882;-69
2024/02/09 12:21:23;;;;;;;12.70;12.30;;;14.40;99.90;;;;;;5050595;28;20467;-70
2024/02/09 12:23:51;;;;;;;12.67;12.27;;;14.50;99.90;;;;;;5045222;28;20984;-70
2024/02/09 12:26:19;;;;;;;12.50;12.10;;;14.40;99.90;;;;;;5048906;28;20464;-69
2024/02/09 12:28:48;;;;;;;13.00;12.60;;;14.40;99.90;;;;;;5040332;28;20468;-71
2024/02/09 12:31:17;;;;;;;12.90;12.50;;;14.40;99.90;;;;;;5048920;28;20823;-71
2024/02/09 12:33:44;;;;;;;12.77;12.37;;;14.40;99.90;;;;;;5045446;28;20472;-69
2024/02/09 12:36:13;;;;;;;12.90;12.50;;;14.50;99.90;;;;;;5049647;28;20567;-70
2024/02/09 12:38:41;;;;;;;12.83;12.43;;;14.50;99.90;;;;;;5044572;28;20464;-71
2024/02/09 12:41:09;;;;;;;13.13;12.73;;;14.70;99.90;;;;;;5047824;28;20468;-70
2024/02/09 12:43:36;;;;;;;13.00;12.60;;;14.70;99.90;;;;;;5050850;28;20535;-68
2024/02/09 12:46:06;;;;;;;13.10;12.70;;;14.70;99.90;;;;;;5045723;28;20484;-71
2024/02/09 12:48:36;;;;;;;13.03;12.63;;;14.70;99.90;;;;;;5047760;28;20464;-69
2024/02/09 12:51:04;;;;;;;13.33;12.93;;;14.80;99.90;;;;;;5046681;28;20468;-69
2024/02/09 12:53:31;;;;;;;13.13;12.73;;;14.90;99.90;;;;;;5052109;28;20457;-69
2024/02/09 12:55:58;;;;;;;13.07;12.67;;;14.90;99.90;;;;;;5047965;28;20481;-71
2024/02/09 12:58:26;;;;;;;13.10;12.70;;;15.00;99.90;;;;;;5046474;28;20604;-71
2024/02/09 13:00:53;;;;;;;13.67;13.17;;;15.00;99.90;;;;;;5045424;28;20509;-71
2024/02/09 13:03:22;;;;;;;13.30;12.90;;;14.70;99.90;;;;;;5044657;28;20496;-68
2024/02/09 13:05:49;;;;;;;13.40;13.00;;;14.70;99.90;;;;;;5051290;28;20467;-68
2024/02/09 13:08:16;;;;;;;13.43;13.03;;;14.70;99.90;;;;;;5047577;28;20457;-71
2024/02/09 13:10:43;;;;;;;13.20;12.80;;;14.60;99.90;;;;;;5045299;28;20467;-70
2024/02/09 13:13:11;;;;;;;13.33;12.93;;;14.50;99.90;;;;;;5046453;28;20498;-70
2024/02/09 13:15:38;;;;;;;13.10;12.70;;;14.60;99.90;;;;;;5046099;28;20468;-70
2024/02/09 13:18:08;;;;;;;12.80;12.40;;;14.60;99.90;;;;;;5049941;28;20468;-68
2024/02/09 13:20:36;;;;;;;12.80;12.40;;;14.60;99.90;;;;;;5045803;28;20582;-68
2024/02/09 13:23:03;;;;;;;12.93;12.53;;;14.50;99.90;;;;;;5045940;28;20472;-69
2024/02/09 13:25:33;;;;;;;12.80;12.40;;;14.50;99.90;;;;;;5048032;28;20484;-69
2024/02/09 13:28:00;;;;;;;12.93;12.53;;;14.50;99.90;;;;;;5047672;28;20465;-70
2024/02/09 13:30:29;;;;;;;12.70;12.30;;;14.50;99.90;;;;;;5046965;28;20471;-70
2024/02/09 13:32:56;;;;;;;13.03;12.63;;;14.50;99.90;;;;;;5048751;28;20476;-69
2024/02/09 13:35:24;;;;;;;12.43;12.03;;;14.60;99.90;;;;;;5042498;28;20468;-71
2024/02/09 13:37:52;;;;;;;12.10;11.80;;;14.70;99.90;;;;;;5050363;28;20473;-71
2024/02/09 13:40:19;;;;;;;12.37;11.97;;;14.60;99.90;;;;;;5046588;28;22285;-71
2024/02/09 13:42:48;;;;;;;12.83;12.43;;;14.70;99.90;;;;;;5048726;28;20544;-70
2024/02/09 13:45:15;;;;;;;12.13;11.83;;;14.50;99.90;;;;;;5047716;28;20498;-70
2024/02/09 13:47:43;;;;;;;12.63;12.23;;;14.50;99.90;;;;;;5048083;28;20468;-69
2024/02/09 13:50:11;;;;;;;12.70;12.30;;;14.50;99.90;;;;;;5046611;28;20466;-71
2024/02/09 13:52:39;;;;;;;12.70;12.30;;;14.50;99.90;;;;;;5048071;28;20707;-69
2024/02/09 13:55:13;;;;;;;12.57;12.17;;;14.60;99.90;;;;;;5048306;28;20961;-70
2024/02/09 13:57:43;;;;;;;12.50;12.10;;;14.60;99.90;;;;;;5047709;28;20562;-69
2024/02/09 14:00:11;;;;;;;12.23;11.87;;;14.50;99.90;;;;;;5044481;28;20486;-71
2024/02/09 14:02:37;;;;;;;12.57;12.17;;;14.50;99.90;;;;;;5043825;28;20468;-74
2024/02/09 14:05:05;;;;;;;12.67;12.27;;;14.50;99.90;;;;;;5047662;28;20498;-70
2024/02/09 14:07:32;;;;;;;12.80;12.40;;;14.50;99.90;;;;;;5045971;28;20744;-69
2024/02/09 14:09:59;;;;;;;12.53;12.13;;;14.50;99.90;;;;;;5048029;28;20466;-68
2024/02/09 14:12:27;;;;;;;12.03;11.73;;;14.50;99.90;;;;;;5047042;28;20469;-71
2024/02/09 14:14:54;;;;;;;12.47;12.07;;;14.50;99.90;;;;;;5048569;28;20489;-71
2024/02/09 14:17:22;;;;;;;12.20;11.90;;;14.50;99.90;;;;;;5045019;28;20473;-68
2024/02/09 14:19:50;;;;;;;12.87;12.47;;;14.50;99.90;;;;;;5044350;28;20555;-70